Terminal Aerodrome Forecast
Issued by NWS

Home | Current Version | Previous Version | Text Only | Print | Product List | Glossary On
Versions: 1 2 3 4 5 6 7 8 9 10 11 12 13 14 15 16 17
000
FTUS43 KUNR 250820 AAA
TAFGCC
TAF AMD
KGCC 250820Z 2508/2606 30010KT P6SM OVC009
     FM251600 29010KT P6SM VCSH BKN050
     FM252200 25008KT P6SM SCT100=

USA.gov is the U.S. government's official web portal to all federal, state and local government web resources and services.